ロゾー の空港の天気 - METARとTAF

ケインフィールド空港 ( TDCF / DCF ) - ドミニカ国 ロゾー
飛行場実況気象(Metar)
観測時間12/06 16:00 AST (12/06 20:00 UTC)
風向・風速東南東 4m/s
視程10km以上
天気現象
全天の4割程度の雲 雲底高度 550m
気温27℃
湿度79%
気圧1013hPa
METARTDCF 062000Z 12007KT 9999 SCT018 27/23 Q1013
過去の天気等 Google飛行場航空写真 Wunderground天気予報

過去48時間のMETAR

飛行場予報(TAF)
データがありません